Tiempo atmosférico en la estación meteorológica de VilagarcÍa de Arousa, Pontevedra (32 m.)



Fecha
DESCASC
Temp. máxima en grados centígrados (hora)
DESCASC
Temp. mínima en grados centígrados (hora)
DESCASC
Temp. media en grados centígrados
DESCASC
Racha de viento máxima en m/sg (hora)
DESCASC
Velocidad máxima media en intervalos de 10 minutos(hora)
DESCASC
Precipitaciones diarias en mm
DESCASC
Precipitaciones de 00:00 a 06:00 en mm
DESCASC
Precipitaciones de 06:00 a 12:00 en mm
DESCASC
Precipitaciones de 12:00 a 18:00 en mm
DESCASC
Precipitaciones de 18:00 a 24:00 en mm
DESCASC
23-06-2019 21.1 (14:40) 15.9 (03:20) 18.5 8.61 (02:50) 5 (17:30) 2.2 2.2 0 0 0
22-06-2019 21.1 (16:00) 14.8 (04:10) 18 8.06 (16:40) 5 (13:20) 0 0 0 0 0
21-06-2019 24 (17:40) 12.9 (07:10) 18.4 8.89 (10:00) 4.44 (15:00) 0 0 0 0 0
20-06-2019 23.6 (15:40) 15.2 (00:00) 19.4 8.33 (19:00) 4.72 (18:20) 0 0 0 0 0
19-06-2019 20.8 (19:10) 15.7 (00:00) 18.2 8.61 (16:30) 4.72 (16:30) 1.2 0.2 0.4 0.6 0
18-06-2019 19.6 (17:10) 13.3 (00:00) 16.5 15 (16:00) 7.22 (15:50) 16 2.4 3.6 6 4
17-06-2019 19.1 (17:40) 11.2 (00:00) 15.2 6.67 (15:30) 4.17 (15:30) 0 0 0 0 0
16-06-2019 23.7 (18:10) 9.4 (00:00) 16.6 7.78 (15:00) 5.56 (15:00) 0 0 0 0 0
15-06-2019 19.5 (16:20) 10.8 (00:00) 15.2 8.33 (14:00) 4.72 (16:30) 0.2 0 0.2 0 0
14-06-2019 18.6 (17:00) 8.2 (00:00) 13.4 9.72 (15:10) 5.28 (16:20) 0 0 0 0 0
13-06-2019 18.8 (19:10) 7.5 (00:00) 13.1 8.61 (15:00) 5.28 (16:20) 0 0 0 0 0
12-06-2019 18.8 (19:40) 8.8 (00:00) 13.8 7.22 (16:00) 4.44 (15:40) 0 0 0 0 0
11-06-2019 20.4 (18:10) 12.1 (00:00) 16.3 10.28 (13:40) 5.83 (13:20) 0 0 0 0 0
10-06-2019 18.9 (12:50) 8.9 (00:00) 13.9 8.61 (16:50) 5.83 (17:10) 0 0 0 0 0
09-06-2019 20.5 (18:20) 10 (00:00) 15.3 8.89 (16:30) 4.72 (16:10) 0 0 0 0 0
08-06-2019 20 (18:20) 8 (00:00) 14 6.67 (15:00) 4.44 (14:30) 0 0 0 0 0
07-06-2019 18 (17:30) 9.6 (00:00) 13.8 11.39 (11:40) 5.56 (00:20) 3 2.6 0.2 0.2 0
06-06-2019 15.5 (16:50) 11.7 (00:00) 13.6 18.89 (14:50) 9.72 (15:30) 36.4 7.2 1.6 26.4 1.2
05-06-2019 17.9 (17:00) 10.5 (00:00) 14.2 11.11 (13:20) 6.67 (14:40) 3.4 3 0.2 0.2 0
04-06-2019 18.8 (18:50) 13 (00:00) 15.9 11.67 (07:50) 6.11 (17:50) 4.6 0.6 3.2 0 0.8
03-06-2019 19.6 (17:10) 16 (00:00) 17.8 8.33 (15:40) 5.83 (16:20) 5.4 1.4 4 0 0
02-06-2019 22 (16:30) 14.2 (00:00) 18.1 7.5 (18:10) 4.44 (13:50) 0 0 0 0 0
01-06-2019 28.7 (15:00) 14.4 (00:00) 21.6 7.5 (17:30) 4.72 (17:30) 0 0 0 0 0
31-05-2019 33.4 (13:10) 18.4 (00:00) 25.9 10.28 (15:00) 5.83 (15:00) 0 0 0 0 0
30-05-2019 31.3 (19:40) 15.3 (00:00) 23.3 6.11 (00:30) 4.44 (14:20) 0 0 0 0 0
29-05-2019 31.3 (17:30) 11.6 (00:00) 21.4 8.61 (05:40) 4.44 (13:30) 0 0 0 0 0
28-05-2019 25.1 (17:10) 11.9 (00:00) 18.5 10.28 (16:40) 5 (22:20) 0 0 0 0 0
27-05-2019 24.4 (16:20) 14.2 (00:00) 19.3 10.28 (21:00) 4.17 (17:20) 0 0 0 0 0
26-05-2019 28.4 (17:50) 12.7 (00:00) 20.5 7.5 (07:20) 2.5 (00:20) 0 0 0 0 0

Gráficas

Temp. máximas Temp. mínimas Temp. medias Precipitaciones Rachas de viento máximas Velocidades máximas media en intervalos de 10 minutos

Datos horarios

Fecha y hora oficial Temperatura (ºC) Velocidad del viento (km/h) Dirección del viento Racha (km/h) Dirección de racha Precipitación (mm) Presión (hPa) Tendencia (hPa) Humedad (%)
2019-06-24 23:00:00 -- -- -- -- -- -- -- -- --
2019-06-24 22:00:00 -- -- -- -- -- -- -- -- --
2019-06-24 21:00:00 -- -- -- -- -- -- -- -- --
2019-06-24 20:00:00 20.5 11 Sudoeste 23 Sudoeste 0 -- -- 67
2019-06-24 19:00:00 21.2 13 Oeste 23 Oeste 0 -- -- 73
2019-06-24 18:00:00 21 12 Sudoeste 28 Sudoeste 0 -- -- 73
2019-06-24 17:00:00 21.4 13 Oeste 29 Oeste 0 -- -- 75
2019-06-24 16:00:00 21 16 Oeste 27 Oeste 0 -- -- 78
2019-06-24 15:00:00 20.4 13 Oeste 26 Oeste 0 -- -- 81
2019-06-24 14:00:00 20.5 13 Oeste 23 Oeste 0 -- -- 79
2019-06-24 13:00:00 19.2 14 Oeste 19 Oeste 0 -- -- 84
2019-06-24 12:00:00 19 7 Noroeste 13 Oeste 0 -- -- 84
2019-06-24 11:00:00 18.7 6 Noroeste 10 Noroeste 0 -- -- 83
2019-06-24 10:00:00 18 0 Calma 8 Este 0 -- -- 85
2019-06-24 09:00:00 16.8 4 Este 6 Este 0 -- -- 90
2019-06-24 08:00:00 15.1 3 Sudeste 5 Sur 0 -- -- 96
2019-06-24 07:00:00 15.3 2 Sur 6 Este 0 -- -- 95
2019-06-24 06:00:00 15.4 4 Este 6 Sudeste 0 -- -- 95
2019-06-24 05:00:00 15.7 3 Sudeste 5 Sudeste 0 -- -- 95
2019-06-24 04:00:00 16.1 2 Sur 7 Este 0 -- -- 94
2019-06-24 03:00:00 16.6 3 Sudeste 6 Este 0 -- -- 93
2019-06-24 02:00:00 17.2 0 Calma 6 Sudoeste 0 -- -- 93
2019-06-24 01:00:00 17.5 4 Sudoeste 6 Sudoeste 0 -- -- 93
2019-06-24 00:00:00 17.7 3 Sudoeste 12 Sudoeste 0 -- -- 92
2019-06-23 23:00:00 17.9 6 Sudoeste 13 Sudoeste 0 -- -- 90
2019-06-23 22:00:00 18.1 8 Sudoeste 15 Sudoeste 0 -- -- 88
2019-06-23 21:00:00 18.4 8 Oeste 17 Sudoeste 0 -- -- 87
2019-06-23 20:00:00 19 8 Oeste 22 Sudoeste 0 -- -- 83
2019-06-23 19:00:00 19.5 12 Sudoeste 28 Sudoeste 0 -- -- 80
2019-06-23 18:00:00 20.5 17 Sudoeste 31 Sudoeste 0 -- -- 74
2019-06-23 17:00:00 20.5 15 Sudoeste 25 Sudoeste 0 -- -- 76
2019-06-23 16:00:00 20.2 14 Sudoeste 28 Sudoeste 0 -- -- 77
2019-06-23 15:00:00 20.6 14 Sudoeste 26 Sudoeste 0 -- -- 76
2019-06-23 14:00:00 20 13 Sudoeste 28 Sudoeste 0 -- -- 77
2019-06-23 13:00:00 19.8 10 Sudoeste 23 Sudoeste 0 -- -- 80
2019-06-23 12:00:00 19.2 10 Sudoeste 26 Sudoeste 0 -- -- 83
2019-06-23 11:00:00 18 12 Sudoeste 26 Sudoeste 0 -- -- 87
2019-06-23 10:00:00 18 12 Sudoeste 22 Sudoeste 0 -- -- 87
2019-06-23 09:00:00 17.3 10 Sudoeste 19 Sur 0 -- -- 92
2019-06-23 08:00:00 16.7 9 Sur 23 Sur 0 -- -- 95
2019-06-23 07:00:00 16.6 8 Sur 19 Sur 0 -- -- 95
2019-06-23 06:00:00 16.5 9 Sur 19 Sur 0.6 -- -- 95
2019-06-23 05:00:00 16.9 5 Sur 19 Sur 0.2 -- -- 93
2019-06-23 04:00:00 16 9 Sudeste 19 Sudeste 0 -- -- 95
2019-06-23 03:00:00 16.3 14 Sur 31 Sur 0.2 -- -- 92
2019-06-23 02:00:00 16.6 10 Sur 18 Sur 0.4 -- -- 85
2019-06-23 01:00:00 17.7 10 Sudeste 18 Sur 0.8 -- -- 77
2019-06-23 00:00:00 19.6 3 Sudoeste 12 Sur 0 -- -- 53
2019-06-22 23:00:00 18.6 3 Sudeste 8 Sur 0 -- -- 62
2019-06-22 22:00:00 19.2 2 Oeste 10 Sudeste 0 -- -- 55
2019-06-22 21:00:00 19.5 7 Sudoeste 18 Sudoeste 0 -- -- 51
2019-06-22 20:00:00 20 3 Sur 19 Sudoeste 0 -- -- 47
2019-06-22 19:00:00 20.6 11 Sudoeste 24 Sudoeste 0 -- -- 51
2019-06-22 18:00:00 20.4 12 Sudoeste 25 Sudoeste 0 -- -- 53
2019-06-22 17:00:00 20.1 14 Sudoeste 29 Sudoeste 0 -- -- 59
2019-06-22 16:00:00 21.1 14 Sudoeste 24 Sudoeste 0 -- -- 59
2019-06-22 15:00:00 19.4 15 Sudoeste 26 Sudoeste 0 -- -- 69
2019-06-22 14:00:00 19.3 10 Oeste 23 Noroeste 0 -- -- 77
2019-06-22 13:00:00 19 11 Noroeste 17 Noroeste 0 -- -- 77
2019-06-22 12:00:00 19 4 Este 11 Este 0 -- -- 74
2019-06-22 11:00:00 18.1 8 Sur 13 Sudoeste 0 -- -- 77
2019-06-22 10:00:00 17.2 4 Sudoeste 10 Sur 0 -- -- 86
2019-06-22 09:00:00 16.5 6 Sudoeste 13 Sudoeste 0 -- -- 90
2019-06-22 08:00:00 15.5 0 Calma 4 Sudoeste 0 -- -- 92
2019-06-22 07:00:00 14.9 2 Este 4 Sudoeste 0 -- -- 93
2019-06-22 06:00:00 14.8 3 Noroeste 5 Sudeste 0 -- -- 93
2019-06-22 05:00:00 14.8 0 Calma 7 Este 0 -- -- 92
2019-06-22 04:00:00 14.9 4 Sudeste 7 Sudeste 0 -- -- 91
2019-06-22 03:00:00 15.1 0 Calma 4 Este 0 -- -- 89
2019-06-22 02:00:00 15.3 3 Sudeste 5 Sur 0 -- -- 87
2019-06-22 01:00:00 16.4 2 Sudeste 4 Sudeste 0 -- -- 82
2019-06-22 00:00:00 17 3 Sudeste 8 Sudeste 0 -- -- 80
2019-06-21 23:00:00 18.3 6 Este 11 Sur 0 -- -- 75
2019-06-21 22:00:00 20.4 4 Sudeste 13 Sudoeste 0 -- -- 67
2019-06-21 21:00:00 22.1 9 Sudoeste 19 Sudoeste 0 -- -- 62
2019-06-21 20:00:00 22.4 11 Sudoeste 22 Sudoeste 0 -- -- 57
2019-06-21 19:00:00 24 9 Oeste 22 Oeste 0 -- -- 54
2019-06-21 18:00:00 24 12 Sudoeste 24 Noroeste 0 -- -- 55
2019-06-21 17:00:00 23.4 13 Oeste 24 Oeste 0 -- -- 57
2019-06-21 16:00:00 23.4 14 Oeste 22 Noroeste 0 -- -- 56
2019-06-21 15:00:00 23.5 16 Noroeste 23 Oeste 0 -- -- 53
2019-06-21 14:00:00 22.8 12 Noroeste 23 Norte 0 -- -- 56
2019-06-21 13:00:00 22.2 9 Nordeste 28 Norte 0 -- -- 60
2019-06-21 12:00:00 21.7 10 Este 23 Este 0 -- -- 59
2019-06-21 11:00:00 19.9 9 Nordeste 27 Este 0 -- -- 66
2019-06-21 10:00:00 18.2 15 Este 32 Este 0 -- -- 70
2019-06-21 09:00:00 15 7 Norte 13 Nordeste 0 -- -- 83
2019-06-21 08:00:00 13.2 8 Norte 14 Nordeste 0 -- -- 89
2019-06-21 07:00:00 13 5 Nordeste 19 Norte 0 -- -- 88
2019-06-21 06:00:00 13.3 9 Norte 21 Norte 0 -- -- 88
2019-06-21 05:00:00 13.9 10 Norte 19 Norte 0 -- -- 85
2019-06-21 04:00:00 14.1 7 Nordeste 17 Norte 0 -- -- 85
2019-06-21 03:00:00 14.4 10 Norte 23 Nordeste 0 -- -- 85
2019-06-21 02:00:00 15 14 Norte 28 Norte 0 -- -- 84
2019-06-21 01:00:00 15.7 13 Norte 25 Norte 0 -- -- 82
2019-06-21 00:00:00 16.5 10 Norte 22 Norte 0 -- -- 80
2019-06-20 23:00:00 16.9 13 Norte 23 Norte 0 -- -- 77
2019-06-20 22:00:00 18.4 6 Nordeste 24 Nordeste 0 -- -- 68
2019-06-20 21:00:00 20.1 5 Nordeste 27 Norte 0 -- -- 61
2019-06-20 20:00:00 20.1 9 Nordeste 24 Norte 0 -- -- 66
2019-06-20 19:00:00 21.1 15 Nordeste 30 Nordeste 0 -- -- 67
2019-06-20 18:00:00 21.7 15 Norte 26 Norte 0 -- -- 65
2019-06-20 17:00:00 22.7 10 Norte 18 Norte 0 -- -- 60
2019-06-20 16:00:00 23.5 9 Norte 19 Nordeste 0 -- -- 57
2019-06-20 15:00:00 23.2 9 Norte 21 Norte 0 -- -- 60
2019-06-20 14:00:00 21.9 11 Norte 20 Norte 0 -- -- 66
2019-06-20 13:00:00 20.9 8 Norte 18 Norte 0 -- -- 70
2019-06-20 12:00:00 20 10 Norte 21 Nordeste 0 -- -- 75
2019-06-20 11:00:00 18.6 10 Norte 19 Norte 0 -- -- 79
2019-06-20 10:00:00 17.7 10 Norte 23 Nordeste 0 -- -- 83
2019-06-20 09:00:00 17.1 6 Nordeste 23 Nordeste 0 -- -- 84
2019-06-20 08:00:00 16.5 10 Norte 23 Nordeste 0 -- -- 87
2019-06-20 07:00:00 16.2 11 Norte 21 Norte 0 -- -- 89
2019-06-20 06:00:00 16.2 9 Norte 17 Norte 0 -- -- 90
2019-06-20 05:00:00 16.3 7 Norte 15 Norte 0 -- -- 90
2019-06-20 04:00:00 16.2 3 Norte 9 Norte 0 -- -- 91
2019-06-20 03:00:00 15.7 3 Norte 6 Nordeste 0 -- -- 97
2019-06-20 02:00:00 15.3 2 Sudeste 5 Sudeste 0 -- -- 97
2019-06-20 01:00:00 15.4 0 Calma 5 Sur 0 -- -- 96
2019-06-20 00:00:00 15.7 0 Calma 5 Sur 0 -- -- 95
2019-06-19 23:00:00 16.5 2 Sudeste 8 Sudoeste 0 -- -- 92
2019-06-19 22:00:00 17.6 4 Sudoeste 15 Sudoeste 0 -- -- 89
2019-06-19 21:00:00 18.8 8 Oeste 15 Sudoeste 0 -- -- 80
2019-06-19 20:00:00 19.4 8 Sudoeste 21 Sudoeste 0 -- -- 78
2019-06-19 19:00:00 20.5 10 Oeste 22 Oeste 0 -- -- 74
2019-06-19 18:00:00 19.9 11 Oeste 28 Sudoeste 0 -- -- 74
2019-06-19 17:00:00 20.4 13 Oeste 31 Oeste 0 -- -- 77
2019-06-19 16:00:00 19.6 13 Oeste 27 Sudoeste 0 -- -- 79
2019-06-19 15:00:00 19.1 14 Oeste 26 Oeste 0.2 -- -- 84
2019-06-19 14:00:00 17.5 11 Sudoeste 27 Sudoeste 0.4 -- -- 95
2019-06-19 13:00:00 17.8 14 Sudoeste 25 Sudoeste 0 -- -- 92
2019-06-19 12:00:00 17.9 13 Sudoeste 24 Sudoeste 0 -- -- 93
2019-06-19 11:00:00 16.9 12 Sudoeste 21 Sur 0.2 -- -- 96
2019-06-19 10:00:00 16.8 10 Sur 20 Sudoeste 0 -- -- 97
2019-06-19 09:00:00 16.3 10 Sudoeste 20 Sudoeste 0.2 -- -- 96
2019-06-19 08:00:00 16.1 10 Sur 21 Sur 0 -- -- 95
2019-06-19 07:00:00 16.2 8 Sudoeste 17 Sur 0 -- -- 96
2019-06-19 06:00:00 16.3 9 Sur 23 Sur 0 -- -- 96
2019-06-19 05:00:00 16.4 10 Sudoeste 23 Sudoeste 0 -- -- 96
2019-06-19 04:00:00 16.6 8 Sudoeste 27 Sudoeste 0 -- -- 97
2019-06-19 03:00:00 16.6 6 Sudoeste 21 Sudoeste 0 -- -- 96
2019-06-19 02:00:00 16.7 7 Sudoeste 21 Sudoeste 0 -- -- 95
2019-06-19 01:00:00 16.8 10 Sudoeste 27 Sudoeste 0.2 -- -- 96
2019-06-19 00:00:00 17 11 Sudoeste 34 Sudoeste 0.2 -- -- 96
2019-06-18 23:00:00 17 15 Sur 34 Sur 1 -- -- 96
2019-06-18 22:00:00 17 15 Sudoeste 39 Sudoeste 2.8 -- -- 96
2019-06-18 21:00:00 17.9 18 Sudoeste 49 Sudoeste 0 -- -- 89
2019-06-18 20:00:00 18.4 23 Sudoeste 50 Sudoeste 0 -- -- 86
2019-06-18 19:00:00 19 19 Sudoeste 44 Sudoeste 0 -- -- 83
2019-06-18 18:00:00 19.1 24 Sudoeste 42 Sur 0 -- -- 82
2019-06-18 17:00:00 19.3 24 Sudoeste 50 Sur 0 -- -- 85
2019-06-18 16:00:00 17.7 25 Sudoeste 54 Sudoeste 2.2 -- -- 92
2019-06-18 15:00:00 17.4 16 Sur 35 Sur 3.2 -- -- 95
2019-06-18 14:00:00 18.2 13 Sur 33 Sur 0.6 -- -- 88
2019-06-18 13:00:00 19 11 Sur 35 Sudeste 0 -- -- 81
2019-06-18 12:00:00 17.4 9 Sudeste 17 Sudeste 0 -- -- 87
2019-06-18 11:00:00 15.7 8 Sudeste 19 Sudeste 0 -- -- 90
2019-06-18 10:00:00 14.1 12 Sudeste 20 Sudeste 0.4 -- -- 95
2019-06-18 09:00:00 13.5 0 Calma 7 Noroeste 0.6 -- -- 94
2019-06-18 08:00:00 13.4 3 Nordeste 11 Sur 1.6 -- -- 95
2019-06-18 07:00:00 14 2 Oeste 7 Nordeste 1 -- -- 97
2019-06-18 06:00:00 14.1 0 Calma 5 Este 0.8 -- -- 96
2019-06-18 05:00:00 14.3 4 Sudeste 12 Sudoeste 0.6 -- -- 93
2019-06-18 04:00:00 15 3 Sudoeste 11 Sudoeste 1 -- -- 91
2019-06-18 03:00:00 15.5 8 Sudoeste 12 Oeste 0 -- -- 85
2019-06-18 02:00:00 15.6 0 Calma 8 Este 0 -- -- 84
2019-06-18 01:00:00 15.4 4 Este 8 Sudeste 0 -- -- 84
2019-06-18 00:00:00 16 3 Noroeste 11 Norte 0 -- -- 79
2019-06-17 23:00:00 15.8 4 Este 16 Este 0 -- -- 80
2019-06-17 22:00:00 16.1 9 Este 14 Este 0 -- -- 80
2019-06-17 21:00:00 16.6 7 Oeste 17 Oeste 0 -- -- 83
2019-06-17 20:00:00 17.7 9 Oeste 15 Oeste 0 -- -- 77
2019-06-17 19:00:00 17.8 11 Noroeste 19 Oeste 0 -- -- 76
2019-06-17 18:00:00 18.3 13 Noroeste 19 Sudoeste 0 -- -- 77
2019-06-17 17:00:00 18.2 13 Noroeste 19 Noroeste 0 -- -- 78
2019-06-17 16:00:00 17.3 8 Sudoeste 24 Sudoeste 0 -- -- 79
2019-06-17 15:00:00 16.9 6 Oeste 12 Oeste 0 -- -- 83
2019-06-17 14:00:00 16.6 7 Oeste 21 Oeste 0 -- -- 83
2019-06-17 13:00:00 18.1 15 Noroeste 19 Noroeste 0 -- -- 75
2019-06-17 12:00:00 18 7 Noroeste 13 Norte 0 -- -- 74
2019-06-17 11:00:00 18.1 7 Norte 13 Norte 0 -- -- 75
2019-06-17 10:00:00 16.4 5 Este 9 Este 0 -- -- 81
2019-06-17 09:00:00 14 2 Sur 5 Sudoeste 0 -- -- 92
2019-06-17 08:00:00 11.7 2 Sudeste 4 Sur 0 -- -- 94
2019-06-17 07:00:00 11.3 3 Sudeste 4 Sudeste 0 -- -- 93
2019-06-17 06:00:00 11.6 0 Calma 4 Este 0 -- -- 92
2019-06-17 05:00:00 12 3 Este 5 Oeste 0 -- -- 89
2019-06-17 04:00:00 12.5 3 Sur 6 Sudeste 0 -- -- 88
2019-06-17 03:00:00 13.1 2 Sur 5 Este 0 -- -- 85
2019-06-17 02:00:00 14.8 0 Calma 11 Norte 0 -- -- 78
2019-06-17 01:00:00 15.4 4 Norte 13 Nordeste 0 -- -- 74
2019-06-17 00:00:00 16.2 8 Norte 23 Nordeste 0 -- -- 70
2019-06-16 23:00:00 17.6 10 Nordeste 20 Nordeste 0 -- -- 66
2019-06-16 22:00:00 19.6 8 Nordeste 23 Este 0 -- -- 60
2019-06-16 21:00:00 22 8 Oeste 15 Sudoeste 0 -- -- 52
2019-06-16 20:00:00 23.1 9 Sudoeste 17 Sudoeste 0 -- -- 47
2019-06-16 19:00:00 22.8 10 Sudoeste 21 Sudoeste 0 -- -- 49
2019-06-16 18:00:00 23.2 10 Sudoeste 24 Noroeste 0 -- -- 48
2019-06-16 17:00:00 22.3 17 Oeste 28 Oeste 0 -- -- 48
2019-06-16 16:00:00 22.3 15 Oeste 28 Oeste 0 -- -- 54
2019-06-16 15:00:00 21.6 20 Oeste 28 Oeste 0 -- -- 57
2019-06-16 14:00:00 22.2 10 Noroeste 19 Oeste 0 -- -- 46
2019-06-16 13:00:00 21.8 9 Norte 19 Noroeste 0 -- -- 54
2019-06-16 12:00:00 20.6 10 Norte 21 Norte 0 -- -- 58
2019-06-16 11:00:00 18.3 8 Norte 15 Norte 0 -- -- 66
2019-06-16 10:00:00 15.2 4 Sudoeste 6 Sudoeste 0 -- -- 76
2019-06-16 09:00:00 13.5 0 Calma 5 Sudeste 0 -- -- 86
2019-06-16 08:00:00 10.4 3 Sudoeste 5 Oeste 0 -- -- 97
2019-06-16 07:00:00 9.5 3 Sur 6 Sur 0 -- -- 96
2019-06-16 06:00:00 10.1 0 Calma 5 Sudeste 0 -- -- 95
2019-06-16 05:00:00 10.9 4 Sudoeste 7 Este 0 -- -- 94
2019-06-16 04:00:00 10.8 5 Este 8 Este 0 -- -- 94
2019-06-16 03:00:00 11.4 3 Sur 5 Sudoeste 0 -- -- 93
2019-06-16 02:00:00 11.9 3 Sudeste 6 Este 0 -- -- 92
2019-06-16 01:00:00 12.5 5 Este 8 Este 0 -- -- 91
2019-06-16 00:00:00 13.5 3 Este 5 Sur 0 -- -- 86
2019-06-15 23:00:00 15 3 Sur 9 Sudoeste 0 -- -- 78
2019-06-15 22:00:00 16.7 4 Oeste 20 Oeste 0 -- -- 70
2019-06-15 21:00:00 17.9 11 Oeste 25 Oeste 0 -- -- 60
2019-06-15 20:00:00 19.1 12 Oeste 21 Oeste 0 -- -- 60
2019-06-15 19:00:00 19.3 12 Oeste 26 Oeste 0 -- -- 63
2019-06-15 18:00:00 19.2 13 Oeste 27 Oeste 0 -- -- 60
2019-06-15 17:00:00 19 14 Sudoeste 28 Oeste 0 -- -- 59
2019-06-15 16:00:00 19.2 13 Oeste 27 Sudoeste 0 -- -- 60
2019-06-15 15:00:00 18.4 16 Oeste 26 Oeste 0 -- -- 65
2019-06-15 14:00:00 17.9 14 Oeste 30 Sudoeste 0 -- -- 67
2019-06-15 13:00:00 17.2 12 Oeste 22 Sudoeste 0 -- -- 70
2019-06-15 12:00:00 15.7 5 Sur 8 Sur 0 -- -- 82
2019-06-15 11:00:00 15.4 5 Sur 15 Oeste 0.2 -- -- 87
2019-06-15 10:00:00 15.1 4 Noroeste 8 Oeste 0 -- -- 87
2019-06-15 09:00:00 14.5 0 Calma 6 Sudeste 0 -- -- 90
2019-06-15 08:00:00 11.3 3 Sudeste 5 Este 0 -- -- 97
2019-06-15 07:00:00 10.8 4 Este 5 Este 0 -- -- 97
2019-06-15 06:00:00 11.1 4 Este 4 Este 0 -- -- 96
2019-06-15 05:00:00 11.6 4 Este 5 Este 0 -- -- 95
2019-06-15 04:00:00 11.9 3 Sudeste 5 Este 0 -- -- 94
2019-06-15 03:00:00 13 3 Sudeste 8 Sudoeste 0 -- -- 90
2019-06-15 02:00:00 14.1 5 Sudoeste 9 Sudoeste 0 -- -- 90
2019-06-15 01:00:00 14.5 6 Sudoeste 11 Sudoeste 0 -- -- 88
2019-06-15 00:00:00 15.2 4 Oeste 10 Oeste 0 -- -- 85
2019-06-14 23:00:00 15.5 6 Oeste 17 Oeste 0 -- -- 82
2019-06-14 22:00:00 16.1 6 Oeste 18 Oeste 0 -- -- 78
2019-06-14 21:00:00 16.5 11 Oeste 22 Oeste 0 -- -- 72
2019-06-14 20:00:00 17.1 13 Oeste 24 Sudoeste 0 -- -- 69
2019-06-14 19:00:00 17.4 12 Sudoeste 32 Sudoeste 0 -- -- 68
2019-06-14 18:00:00 18 18 Oeste 32 Sudoeste 0 -- -- 64
2019-06-14 17:00:00 18.6 15 Oeste 32 Sudoeste 0 -- -- 64
2019-06-14 16:00:00 18.2 16 Oeste 35 Oeste 0 -- -- 64
2019-06-14 15:00:00 17.8 19 Oeste 29 Oeste 0 -- -- 60
2019-06-14 14:00:00 17.6 16 Oeste 24 Oeste 0 -- -- 61
2019-06-14 13:00:00 17.4 13 Oeste 22 Sudoeste 0 -- -- 60
2019-06-14 12:00:00 16.6 9 Oeste 15 Oeste 0 -- -- 61
2019-06-14 11:00:00 15.5 6 Noroeste 12 Noroeste 0 -- -- 71
2019-06-14 10:00:00 14.6 2 Este 9 Sudeste 0 -- -- 74
2019-06-14 09:00:00 12 6 Sudeste 15 Sudeste 0 -- -- 84
2019-06-14 08:00:00 9.6 7 Este 13 Este 0 -- -- 94
2019-06-14 07:00:00 8.2 4 Este 7 Sudeste 0 -- -- 94
2019-06-14 06:00:00 9 0 Calma 4 Oeste 0 -- -- 92
2019-06-14 05:00:00 9.7 0 Calma 5 Sudeste 0 -- -- 92
2019-06-14 04:00:00 10.3 2 Sudeste 6 Sur 0 -- -- 90
2019-06-14 03:00:00 11.4 0 Calma 5 Norte 0 -- -- 87
2019-06-14 02:00:00 11.8 0 Calma 4 Este 0 -- -- 84
2019-06-14 01:00:00 13.5 3 Nordeste 22 Nordeste 0 -- -- 78
2019-06-14 00:00:00 14.2 5 Nordeste 17 Nordeste 0 -- -- 74
2019-06-13 23:00:00 15.1 3 Este 15 Este 0 -- -- 71
2019-06-13 22:00:00 16.8 8 Este 19 Sudoeste 0 -- -- 63
2019-06-13 21:00:00 17.9 10 Oeste 18 Oeste 0 -- -- 59
2019-06-13 20:00:00 18.4 10 Oeste 23 Oeste 0 -- -- 54
2019-06-13 19:00:00 18.7 11 Oeste 23 Noroeste 0 -- -- 54
2019-06-13 18:00:00 17.8 13 Oeste 27 Oeste 0 -- -- 57
2019-06-13 17:00:00 18.2 17 Oeste 31 Noroeste 0 -- -- 57
2019-06-13 16:00:00 17.9 15 Oeste 30 Oeste 0 -- -- 62
2019-06-13 15:00:00 17.8 19 Oeste 31 Noroeste 0 -- -- 62
2019-06-13 14:00:00 17.6 14 Oeste 24 Oeste 0 -- -- 64
2019-06-13 13:00:00 16.7 14 Noroeste 20 Noroeste 0 -- -- 60
2019-06-13 12:00:00 16.2 8 Noroeste 15 Noroeste 0 -- -- 60
2019-06-13 11:00:00 14.8 8 Noroeste 14 Noroeste 0 -- -- 74
2019-06-13 10:00:00 12.7 4 Noroeste 12 Noroeste 0 -- -- 82
2019-06-13 09:00:00 11.4 4 Este 8 Sudoeste 0 -- -- 88
2019-06-13 08:00:00 8.7 4 Oeste 8 Oeste 0 -- -- 97
2019-06-13 07:00:00 7.5 4 Sudeste 6 Sudeste 0 -- -- 96
2019-06-13 06:00:00 8.1 2 Nordeste 4 Este 0 -- -- 96
2019-06-13 05:00:00 8.8 0 Calma 5 Sur 0 -- -- 93
2019-06-13 04:00:00 9.4 2 Sur 6 Noroeste 0 -- -- 90
2019-06-13 03:00:00 11 2 Nordeste 14 Norte 0 -- -- 85
2019-06-13 02:00:00 11.9 9 Noroeste 14 Noroeste 0 -- -- 84
2019-06-13 01:00:00 12.6 5 Nordeste 10 Nordeste 0 -- -- 77
2019-06-13 00:00:00 13.3 5 Nordeste 11 Nordeste 0 -- -- 80
2019-06-12 23:00:00 14.3 6 Nordeste 10 Norte 0 -- -- 79
2019-06-12 22:00:00 15.1 7 Nordeste 15 Nordeste 0 -- -- 74
2019-06-12 21:00:00 15.7 7 Nordeste 19 Nordeste 0 -- -- 67
2019-06-12 20:00:00 16.8 12 Nordeste 24 Nordeste 0 -- -- 62
2019-06-12 19:00:00 17.5 6 Nordeste 15 Norte 0 -- -- 62
2019-06-12 18:00:00 16.8 10 Norte 19 Norte 0 -- -- 67
2019-06-12 17:00:00 16.9 11 Noroeste 26 Oeste 0 -- -- 65
2019-06-12 16:00:00 16.3 16 Oeste 26 Oeste 0 -- -- 70
2019-06-12 15:00:00 16.8 12 Oeste 22 Oeste 0 -- -- 63
2019-06-12 14:00:00 16.4 14 Noroeste 21 Oeste 0 -- -- 63
2019-06-12 13:00:00 16 10 Noroeste 16 Noroeste 0 -- -- 65
2019-06-12 12:00:00 15.3 3 Norte 9 Noroeste 0 -- -- 70
2019-06-12 11:00:00 15.4 5 Norte 10 Noroeste 0 -- -- 69
2019-06-12 10:00:00 14.9 2 Nordeste 9 Nordeste 0 -- -- 73
2019-06-12 09:00:00 12.7 3 Este 6 Este 0 -- -- 83
2019-06-12 08:00:00 10 2 Sur 4 Este 0 -- -- 95
2019-06-12 07:00:00 9.3 0 Calma 6 Sudeste 0 -- -- 94
2019-06-12 06:00:00 9.1 3 Nordeste 7 Este 0 -- -- 95
2019-06-12 05:00:00 9.3 3 Sudeste 6 Norte 0 -- -- 91
2019-06-12 04:00:00 10.8 0 Calma 7 Norte 0 -- -- 87
2019-06-12 03:00:00 11.7 3 Norte 6 Norte 0 -- -- 86
2019-06-12 02:00:00 11.8 0 Calma 8 Nordeste 0 -- -- 83
2019-06-12 01:00:00 12.8 4 Nordeste 10 Nordeste 0 -- -- 78
2019-06-12 00:00:00 13.3 4 Norte 14 Este 0 -- -- 75
2019-06-11 23:00:00 14 8 Nordeste 21 Nordeste 0 -- -- 71
2019-06-11 22:00:00 15.4 12 Nordeste 29 Norte 0 -- -- 62
2019-06-11 21:00:00 17.3 13 Nordeste 31 Nordeste 0 -- -- 54
2019-06-11 20:00:00 18.4 17 Nordeste 34 Este 0 -- -- 46
2019-06-11 19:00:00 19.2 16 Nordeste 30 Norte 0 -- -- 47
2019-06-11 18:00:00 20.3 12 Nordeste 32 Norte 0 -- -- 45
2019-06-11 17:00:00 19.8 17 Nordeste 36 Norte 0 -- -- 47
2019-06-11 16:00:00 19.6 16 Nordeste 36 Nordeste 0 -- -- 49
2019-06-11 15:00:00 19.9 18 Norte 34 Nordeste 0 -- -- 47
2019-06-11 14:00:00 18.9 18 Nordeste 37 Norte 0 -- -- 49
2019-06-11 13:00:00 18.3 17 Nordeste 35 Nordeste 0 -- -- 51
2019-06-11 12:00:00 17.5 12 Nordeste 31 Nordeste 0 -- -- 56
2019-06-11 11:00:00 16.1 15 Nordeste 30 Nordeste 0 -- -- 58
2019-06-11 10:00:00 15.3 13 Nordeste 27 Nordeste 0 -- -- 70
2019-06-11 09:00:00 13.8 9 Nordeste 17 Nordeste 0 -- -- 76
2019-06-11 08:00:00 12.3 9 Nordeste 30 Nordeste 0 -- -- 80
2019-06-11 07:00:00 12.2 14 Nordeste 31 Norte 0 -- -- 81
2019-06-11 06:00:00 12.8 12 Nordeste 25 Nordeste 0 -- -- 84
2019-06-11 05:00:00 13.3 6 Nordeste 13 Norte 0 -- -- 82
2019-06-11 04:00:00 13.8 6 Nordeste 15 Nordeste 0 -- -- 79
2019-06-11 03:00:00 14.1 4 Nordeste 14 Nordeste 0 -- -- 77
2019-06-11 02:00:00 14.5 4 Nordeste 19 Nordeste 0 -- -- 73
2019-06-11 01:00:00 14.9 9 Nordeste 27 Este 0 -- -- 69
2019-06-11 00:00:00 15.2 13 Nordeste 24 Nordeste 0 -- -- 67
2019-06-10 23:00:00 15.8 8 Nordeste 15 Nordeste 0 -- -- 65
2019-06-10 22:00:00 16.1 8 Noroeste 18 Noroeste 0 -- -- 66
2019-06-10 21:00:00 17 8 Noroeste 15 Noroeste 0 -- -- 62
2019-06-10 20:00:00 17.3 10 Noroeste 17 Oeste 0 -- -- 63
2019-06-10 19:00:00 17.5 10 Oeste 22 Oeste 0 -- -- 63
2019-06-10 18:00:00 17.8 16 Oeste 28 Oeste 0 -- -- 65
2019-06-10 17:00:00 18.5 19 Oeste 31 Oeste 0 -- -- 64
2019-06-10 16:00:00 18.1 19 Oeste 29 Oeste 0 -- -- 63
2019-06-10 15:00:00 18 14 Oeste 25 Noroeste 0 -- -- 64
2019-06-10 14:00:00 17.3 14 Oeste 25 Noroeste 0 -- -- 66
2019-06-10 13:00:00 18.6 11 Noroeste 18 Noroeste 0 -- -- 57
2019-06-10 12:00:00 17.6 6 Nordeste 13 Norte 0 -- -- 57
2019-06-10 11:00:00 16.1 6 Norte 14 Norte 0 -- -- 72
2019-06-10 10:00:00 14.5 4 Norte 8 Noroeste 0 -- -- 74
2019-06-10 09:00:00 12 2 Noroeste 6 Norte 0 -- -- 85
2019-06-10 08:00:00 10.1 3 Este 9 Sudeste 0 -- -- 91
2019-06-10 07:00:00 9.3 2 Nordeste 5 Norte 0 -- -- 93
2019-06-10 06:00:00 9.6 2 Este 5 Nordeste 0 -- -- 91
2019-06-10 05:00:00 9.9 3 Este 8 Nordeste 0 -- -- 89
2019-06-10 04:00:00 11.7 3 Sudeste 10 Sudeste 0 -- -- 83
2019-06-10 03:00:00 12.5 7 Norte 16 Norte 0 -- -- 79
2019-06-10 02:00:00 13.1 5 Nordeste 20 Norte 0 -- -- 72
2019-06-10 01:00:00 14 9 Norte 21 Nordeste 0 -- -- 67
2019-06-10 00:00:00 15 0 Calma 20 Norte 0 -- -- 64
2019-06-09 23:00:00 15.6 6 Nordeste 25 Nordeste 0 -- -- 65
2019-06-09 22:00:00 17.6 12 Nordeste 22 Nordeste 0 -- -- 59
2019-06-09 21:00:00 19.2 8 Norte 20 Noroeste 0 -- -- 59
2019-06-09 20:00:00 19.8 12 Noroeste 21 Noroeste 0 -- -- 59
2019-06-09 19:00:00 19.2 13 Oeste 23 Noroeste 0 -- -- 58
2019-06-09 18:00:00 20.1 15 Oeste 26 Oeste 0 -- -- 52
2019-06-09 17:00:00 19.8 17 Oeste 32 Oeste 0 -- -- 57
2019-06-09 16:00:00 19.4 17 Oeste 30 Oeste 0 -- -- 60
2019-06-09 15:00:00 19.3 12 Oeste 22 Noroeste 0 -- -- 58
2019-06-09 14:00:00 18.9 14 Oeste 21 Oeste 0 -- -- 52
2019-06-09 13:00:00 18.9 8 Oeste 14 Noroeste 0 -- -- 54
2019-06-09 12:00:00 16.9 6 Noroeste 12 Nordeste 0 -- -- 70
2019-06-09 11:00:00 15.8 3 Norte 11 Oeste 0 -- -- 73
2019-06-09 10:00:00 14.5 3 Oeste 7 Oeste 0 -- -- 76
2019-06-09 09:00:00 13.4 4 Este 10 Este 0 -- -- 81
2019-06-09 08:00:00 10.3 3 Este 5 Este 0 -- -- 94
2019-06-09 07:00:00 10.4 0 Calma 4 Sudeste 0 -- -- 91
2019-06-09 06:00:00 11.3 0 Calma 5 Sudeste 0 -- -- 89
2019-06-09 05:00:00 12.1 0 Calma 4 Sudeste 0 -- -- 84
2019-06-09 04:00:00 13 2 Norte 15 Norte 0 -- -- 79
2019-06-09 03:00:00 13.2 8 Norte 19 Norte 0 -- -- 77
2019-06-09 02:00:00 13.4 7 Norte 18 Noroeste 0 -- -- 75
2019-06-09 01:00:00 13.9 5 Nordeste 18 Nordeste 0 -- -- 73
2019-06-09 00:00:00 14.2 9 Nordeste 22 Nordeste 0 -- -- 74
2019-06-08 23:00:00 15.1 8 Este 21 Este 0 -- -- 72
2019-06-08 22:00:00 16.8 5 Norte 12 Noroeste 0 -- -- 61
2019-06-08 21:00:00 18 6 Noroeste 11 Norte 0 -- -- 57
2019-06-08 20:00:00 18.9 5 Norte 13 Noroeste 0 -- -- 50
2019-06-08 19:00:00 19.7 9 Noroeste 17 Oeste 0 -- -- 46
2019-06-08 18:00:00 19.7 8 Norte 21 Noroeste 0 -- -- 44
2019-06-08 17:00:00 18.4 9 Noroeste 18 Norte 0 -- -- 52
2019-06-08 16:00:00 17.1 9 Norte 24 Noroeste 0 -- -- 58
2019-06-08 15:00:00 16.5 15 Noroeste 24 Noroeste 0 -- -- 59
2019-06-08 14:00:00 18.8 9 Norte 19 Noroeste 0 -- -- 49
2019-06-08 13:00:00 17.8 10 Norte 20 Noroeste 0 -- -- 56
2019-06-08 12:00:00 15.9 6 Norte 15 Noroeste 0 -- -- 72
2019-06-08 11:00:00 13.6 8 Norte 16 Norte 0 -- -- 77
2019-06-08 10:00:00 12.6 3 Norte 6 Noroeste 0 -- -- 82
2019-06-08 09:00:00 10.4 0 Calma 8 Este 0 -- -- 91
2019-06-08 08:00:00 8.5 3 Este 8 Este 0 -- -- 96
2019-06-08 07:00:00 8 5 Este 8 Sudeste 0 -- -- 95
2019-06-08 06:00:00 8.6 2 Sudeste 10 Sudeste 0 -- -- 94
2019-06-08 05:00:00 8.8 6 Sudeste 11 Este 0 -- -- 95
2019-06-08 04:00:00 9.2 3 Sudeste 9 Sudeste 0 -- -- 94
2019-06-08 03:00:00 9.5 4 Este 5 Este 0 -- -- 94
2019-06-08 02:00:00 10 4 Este 6 Sudeste 0 -- -- 92
2019-06-08 01:00:00 10.7 3 Sudeste 6 Sudeste 0 -- -- 90
2019-06-08 00:00:00 11.4 3 Sudeste 6 Sudeste 0 -- -- 86
2019-06-07 23:00:00 13.2 3 Sudoeste 13 Oeste 0 -- -- 76
2019-06-07 22:00:00 14.8 8 Oeste 21 Oeste 0 -- -- 67
2019-06-07 21:00:00 16.4 12 Oeste 23 Oeste 0 -- -- 58
2019-06-07 20:00:00 16.9 12 Oeste 22 Oeste 0 -- -- 59
2019-06-07 19:00:00 17.4 13 Oeste 26 Oeste 0 -- -- 56
2019-06-07 18:00:00 16.8 15 Oeste 28 Oeste 0 -- -- 60
2019-06-07 17:00:00 17.5 19 Oeste 29 Sudoeste 0 -- -- 55
2019-06-07 16:00:00 16.8 17 Oeste 30 Oeste 0 -- -- 54
2019-06-07 15:00:00 16.3 14 Oeste 25 Oeste 0 -- -- 66
2019-06-07 14:00:00 14.4 15 Sudoeste 31 Sudoeste 0 -- -- 77
2019-06-07 13:00:00 15.7 14 Oeste 28 Oeste 0.2 -- -- 68
2019-06-07 12:00:00 14.7 5 Nordeste 41 Noroeste 0 -- -- 69
2019-06-07 11:00:00 15.1 10 Sudoeste 17 Oeste 0 -- -- 71
2019-06-07 10:00:00 13.8 6 Sudoeste 13 Sudoeste 0 -- -- 75
2019-06-07 09:00:00 12.3 5 Este 10 Este 0 -- -- 92
2019-06-07 08:00:00 10.6 2 Sur 23 Oeste 0.2 -- -- 94
2019-06-07 07:00:00 9.6 6 Este 10 Este 0 -- -- 97
2019-06-07 06:00:00 10.2 7 Sur 22 Nordeste 0.4 -- -- 94
2019-06-07 05:00:00 10 6 Sur 12 Sur 0.2 -- -- 95
2019-06-07 04:00:00 10.5 3 Este 28 Noroeste 1.6 -- -- 93
2019-06-07 03:00:00 11 7 Sudoeste 16 Sudoeste 0.2 -- -- 90
2019-06-07 02:00:00 10.9 4 Sur 30 Oeste 0.2 -- -- 91
2019-06-07 01:00:00 12.2 12 Oeste 37 Oeste 0 -- -- 84
2019-06-07 00:00:00 12.5 13 Oeste 31 Oeste 0 -- -- 85
2019-06-06 23:00:00 12.3 17 Oeste 31 Noroeste 0 -- -- 82
2019-06-06 22:00:00 12.3 10 Oeste 33 Noroeste 0.2 -- -- 89
2019-06-06 21:00:00 12.6 18 Oeste 36 Oeste 0.8 -- -- 87
2019-06-06 20:00:00 12.8 23 Oeste 44 Oeste 0 -- -- 88
2019-06-06 19:00:00 13.3 15 Oeste 43 Oeste 0.2 -- -- 89
2019-06-06 18:00:00 13.7 21 Oeste 53 Oeste 0.4 -- -- 90
2019-06-06 17:00:00 15.5 24 Oeste 50 Oeste 0 -- -- 80
2019-06-06 16:00:00 14.6 23 Oeste 63 Sur 12 -- -- 93
2019-06-06 15:00:00 14.2 28 Sur 68 Sur 3.8 -- -- 94
2019-06-06 14:00:00 13.7 31 Sur 64 Sur 6.6 -- -- 93
2019-06-06 13:00:00 13.6 23 Sur 52 Sudeste 3.6 -- -- 92
2019-06-06 12:00:00 13.8 19 Sur 42 Sur 0 -- -- 88
2019-06-06 11:00:00 13 21 Sur 40 Sur 0.4 -- -- 91
2019-06-06 10:00:00 12.7 13 Sur 32 Sudeste 0.4 -- -- 92
2019-06-06 09:00:00 12.7 14 Sudeste 28 Sur 0.2 -- -- 90
2019-06-06 08:00:00 12.3 10 Sudeste 28 Sudeste 0 -- -- 92
2019-06-06 07:00:00 11.7 12 Sudeste 18 Sudeste 0.6 -- -- 98
2019-06-06 06:00:00 11.7 8 Sudeste 17 Sudeste 4.4 -- -- 97
2019-06-06 05:00:00 11.9 11 Sudeste 17 Sudeste 0.8 -- -- 94
2019-06-06 04:00:00 12.7 4 Sur 9 Sur 1.8 -- -- 91
2019-06-06 03:00:00 12.6 3 Sudeste 5 Sudeste 0 -- -- 91
2019-06-06 02:00:00 13.1 4 Sudoeste 19 Sur 0.2 -- -- 87
2019-06-06 01:00:00 13.5 3 Sur 8 Sur 0 -- -- 78
2019-06-06 00:00:00 13.7 2 Sur 13 Sudoeste 0 -- -- 77
2019-06-05 23:00:00 14.4 6 Oeste 17 Sudoeste 0 -- -- 74
2019-06-05 22:00:00 14.8 6 Sudoeste 24 Sudoeste 0 -- -- 68
2019-06-05 21:00:00 15.5 12 Oeste 26 Oeste 0 -- -- 64
2019-06-05 20:00:00 15.7 15 Oeste 27 Sudoeste 0 -- -- 62
2019-06-05 19:00:00 16.8 15 Oeste 31 Oeste 0 -- -- 57
2019-06-05 18:00:00 16.7 14 Sudoeste 32 Oeste 0 -- -- 61
2019-06-05 17:00:00 17.9 18 Oeste 34 Noroeste 0 -- -- 54
2019-06-05 16:00:00 17.3 21 Oeste 34 Oeste 0 -- -- 56
2019-06-05 15:00:00 17 20 Oeste 38 Noroeste 0 -- -- 57
2019-06-05 14:00:00 16.2 18 Oeste 40 Oeste 0.2 -- -- 65
2019-06-05 13:00:00 17 21 Oeste 32 Oeste 0 -- -- 60
2019-06-05 12:00:00 16.1 18 Oeste 33 Oeste 0 -- -- 68
2019-06-05 11:00:00 15.3 15 Oeste 24 Oeste 0 -- -- 67
2019-06-05 10:00:00 14.4 5 Noroeste 10 Noroeste 0 -- -- 80
2019-06-05 09:00:00 12.6 0 Calma 5 Este 0 -- -- 100
2019-06-05 08:00:00 11.3 3 Este 6 Sudeste 0 -- -- 100
2019-06-05 07:00:00 11 3 Este 6 Sur 0.2 -- -- 99
2019-06-05 06:00:00 11.3 5 Sur 6 Sur 1.6 -- -- 98
2019-06-05 05:00:00 10.9 0 Calma 7 Sur 1.4 -- -- 97
2019-06-05 04:00:00 10.6 3 Sudeste 9 Sur 0 -- -- 95
2019-06-05 03:00:00 11.3 4 Sur 9 Sur 0 -- -- 94
2019-06-05 02:00:00 11.8 4 Sur 8 Este 0 -- -- 95
2019-06-05 01:00:00 12.1 5 Sudoeste 8 Sur 0 -- -- 93
2019-06-05 00:00:00 13 5 Sur 33 Noroeste 0.8 -- -- 89
2019-06-04 23:00:00 15 10 Noroeste 19 Oeste 0 -- -- 76
2019-06-04 22:00:00 15.3 12 Oeste 24 Oeste 0 -- -- 74
2019-06-04 21:00:00 16.3 18 Noroeste 32 Noroeste 0 -- -- 64
2019-06-04 20:00:00 16.6 14 Oeste 34 Oeste 0 -- -- 68
2019-06-04 19:00:00 18.1 17 Oeste 30 Oeste 0 -- -- 65
2019-06-04 18:00:00 18.4 20 Oeste 32 Noroeste 0 -- -- 63
2019-06-04 17:00:00 16.4 12 Oeste 35 Oeste 0 -- -- 75
2019-06-04 16:00:00 17.3 14 Oeste 33 Oeste 0 -- -- 67
2019-06-04 15:00:00 18.5 14 Oeste 32 Oeste 0 -- -- 67
2019-06-04 14:00:00 18.3 17 Oeste 34 Oeste 0 -- -- 65
2019-06-04 13:00:00 17.8 20 Oeste 31 Oeste 0 -- -- 71
2019-06-04 12:00:00 17.2 13 Oeste 24 Oeste 0 -- -- 71
2019-06-04 11:00:00 17.2 14 Oeste 23 Noroeste 0 -- -- 71
2019-06-04 10:00:00 16.5 10 Noroeste 23 Oeste 0 -- -- 75
2019-06-04 09:00:00 15.5 15 Noroeste 35 Noroeste 0 -- -- 85
2019-06-04 08:00:00 14.9 12 Oeste 42 Sudoeste 1.8 -- -- 98
2019-06-04 07:00:00 15.3 16 Sur 34 Sur 1.4 -- -- 96
2019-06-04 06:00:00 15.6 15 Sur 32 Sudoeste 0.6 -- -- 94
2019-06-04 05:00:00 16.2 12 Sudoeste 30 Sudoeste 0 -- -- 90
2019-06-04 04:00:00 16.6 11 Sudoeste 24 Sudoeste 0 -- -- 86
2019-06-04 03:00:00 16.2 7 Sur 18 Sur 0 -- -- 77
2019-06-04 02:00:00 16.3 2 Sudoeste 10 Sudeste 0 -- -- 77
2019-06-04 01:00:00 16.5 2 Sudoeste 12 Sur 0 -- -- 76
2019-06-04 00:00:00 16.3 6 Sur 15 Sur 0 -- -- 82
2019-06-03 23:00:00 16 7 Sur 14 Sur 0 -- -- 86
2019-06-03 22:00:00 16.5 9 Oeste 17 Sudoeste 0 -- -- 84
2019-06-03 21:00:00 17.1 9 Sudoeste 23 Sudoeste 0 -- -- 82
2019-06-03 20:00:00 18.1 12 Sudoeste 24 Sudoeste 0 -- -- 76
2019-06-03 19:00:00 18.3 15 Oeste 29 Sudoeste 0 -- -- 74
2019-06-03 18:00:00 18.8 17 Oeste 29 Sudoeste 0 -- -- 76
2019-06-03 17:00:00 19.5 16 Sudoeste 30 Sudoeste 0 -- -- 74
2019-06-03 16:00:00 19.3 17 Sudoeste 30 Sudoeste 0 -- -- 79
2019-06-03 15:00:00 18.3 16 Sudoeste 27 Sudoeste 0 -- -- 89
2019-06-03 14:00:00 18.4 17 Sudoeste 27 Sudoeste 0 -- -- 89
2019-06-03 13:00:00 18.7 14 Sudoeste 25 Sudoeste 0 -- -- 90
2019-06-03 12:00:00 18.6 11 Sudoeste 23 Sur 0 -- -- 95
2019-06-03 11:00:00 17.2 14 Sudoeste 25 Sudoeste 0.4 -- -- 99
2019-06-03 10:00:00 17.3 9 Sudoeste 15 Sudoeste 1 -- -- 99
2019-06-03 09:00:00 16.5 4 Este 10 Este 1.6 -- -- 100
2019-06-03 08:00:00 16.4 6 Este 11 Este 0.8 -- -- 99
2019-06-03 07:00:00 16.9 2 Este 9 Sur 0.2 -- -- 98
2019-06-03 06:00:00 16.7 5 Este 9 Sudeste 1 -- -- 98
2019-06-03 05:00:00 17 5 Este 9 Sudeste 0.4 -- -- 97
2019-06-03 04:00:00 17.6 4 Este 10 Sur 0 -- -- 91
2019-06-03 03:00:00 17.8 5 Sudeste 10 Sur 0 -- -- 90
2019-06-03 02:00:00 17.6 3 Este 10 Sudeste 0 -- -- 91
2019-06-03 01:00:00 17.8 3 Sur 9 Sur 0 -- -- 89
2019-06-03 00:00:00 17.8 4 Sur 11 Sudoeste 0 -- -- 89
2019-06-02 23:00:00 17.8 3 Sur 12 Sudoeste 0 -- -- 87
2019-06-02 22:00:00 17.9 6 Sur 15 Sudoeste 0 -- -- 86
2019-06-02 21:00:00 18.2 8 Sudoeste 18 Sudoeste 0 -- -- 83
2019-06-02 20:00:00 18.2 10 Sudoeste 23 Sudoeste 0 -- -- 82
2019-06-02 19:00:00 18.8 10 Sudoeste 27 Sudoeste 0 -- -- 78
2019-06-02 18:00:00 19.9 13 Sudoeste 23 Sudoeste 0 -- -- 68
2019-06-02 17:00:00 21.7 13 Sudoeste 19 Sudoeste 0 -- -- 65
2019-06-02 16:00:00 21.7 10 Oeste 18 Noroeste 0 -- -- 63
2019-06-02 15:00:00 20.2 13 Noroeste 19 Oeste 0 -- -- 72
2019-06-02 14:00:00 19.5 10 Oeste 23 Oeste 0 -- -- 74
2019-06-02 13:00:00 18.7 9 Oeste 21 Oeste 0 -- -- 75
2019-06-02 12:00:00 18 7 Oeste 15 Oeste 0 -- -- 79
2019-06-02 11:00:00 16.5 7 Oeste 13 Sudoeste 0 -- -- 84
2019-06-02 10:00:00 16.1 4 Sudeste 10 Sudeste 0 -- -- 88
2019-06-02 09:00:00 14.9 4 Sudoeste 17 Sudoeste 0 -- -- 94
2019-06-02 08:00:00 14.5 7 Sudoeste 13 Sudoeste 0 -- -- 95
2019-06-02 07:00:00 14.4 3 Sur 6 Sudeste 0 -- -- 93
2019-06-02 06:00:00 14.7 0 Calma 5 Sur 0 -- -- 96
2019-06-02 05:00:00 14.6 3 Sur 12 Sudoeste 0 -- -- 96
2019-06-02 04:00:00 15.7 0 Calma 4 Noroeste 0 -- -- 89
2019-06-02 03:00:00 16.5 3 Noroeste 5 Sudeste 0 -- -- 80
2019-06-02 02:00:00 16.7 4 Este 7 Oeste 0 -- -- 69
2019-06-02 01:00:00 18.8 3 Oeste 6 Noroeste 0 -- -- 59
2019-06-02 00:00:00 18.9 3 Sudeste 6 Este 0 -- -- 56
2019-06-01 23:00:00 20.8 2 Sur 15 Sudoeste 0 -- -- 48
2019-06-01 22:00:00 22.9 4 Sur 13 Sudoeste 0 -- -- 40
2019-06-01 21:00:00 24.8 11 Sudoeste 17 Sudoeste 0 -- -- 36
2019-06-01 20:00:00 27.3 9 Sudoeste 20 Sudoeste 0 -- -- 33
2019-06-01 19:00:00 27.2 14 Sudoeste 25 Sudoeste 0 -- -- 31
2019-06-01 18:00:00 28.1 16 Sudoeste 27 Sudoeste 0 -- -- 32
2019-06-01 17:00:00 27 17 Sudoeste 26 Sudoeste 0 -- -- 44
2019-06-01 16:00:00 27 15 Oeste 23 Sudoeste 0 -- -- 46
2019-06-01 15:00:00 28.7 12 Oeste 22 Oeste 0 -- -- 41
2019-06-01 14:00:00 28.2 10 Oeste 16 Oeste 0 -- -- 46
2019-06-01 13:00:00 26 9 Oeste 13 Noroeste 0 -- -- 49
2019-06-01 12:00:00 24.1 8 Noroeste 12 Noroeste 0 -- -- 55
2019-06-01 11:00:00 23.1 7 Noroeste 10 Noroeste 0 -- -- 60
2019-06-01 10:00:00 20.9 4 Noroeste 6 Noroeste 0 -- -- 66
2019-06-01 09:00:00 17.9 0 Calma 4 Este 0 -- -- 72
2019-06-01 08:00:00 14.9 0 Calma 3 Sur 0 -- -- 82
2019-06-01 07:00:00 14.5 0 Calma 5 Sudeste 0 -- -- 82
2019-06-01 06:00:00 15.1 2 Sudeste 4 Sudeste 0 -- -- 78
2019-06-01 05:00:00 16 2 Este 6 Sudeste 0 -- -- 76
2019-06-01 04:00:00 16.7 2 Este 8 Oeste 0 -- -- 75
2019-06-01 03:00:00 17.8 4 Oeste 6 Oeste 0 -- -- 70
2019-06-01 02:00:00 17.8 2 Nordeste 4 Este 0 -- -- 72
2019-06-01 01:00:00 18.9 2 Sur 4 Sur 0 -- -- 70
2019-06-01 00:00:00 19.9 0 Calma 4 Nordeste 0 -- -- 68
2019-05-31 23:00:00 21.1 3 Sudeste 5 Noroeste 0 -- -- 64
2019-05-31 22:00:00 23.7 0 Calma 4 Oeste 0 -- -- 57
2019-05-31 21:00:00 24.6 5 Noroeste 11 Noroeste 0 -- -- 55
2019-05-31 20:00:00 29.1 6 Oeste 13 Oeste 0 -- -- 43
2019-05-31 19:00:00 30 8 Oeste 19 Sudoeste 0 -- -- 32
2019-05-31 18:00:00 29.4 8 Oeste 21 Oeste 0 -- -- 34
2019-05-31 17:00:00 29 12 Sudoeste 24 Oeste 0 -- -- 36
2019-05-31 16:00:00 29.4 15 Oeste 30 Oeste 0 -- -- 34
2019-05-31 15:00:00 31.3 21 Oeste 37 Sudoeste 0 -- -- 31
2019-05-31 14:00:00 32.5 10 Oeste 15 Noroeste 0 -- -- 28
2019-05-31 13:00:00 33.1 6 Norte 12 Noroeste 0 -- -- 34
2019-05-31 12:00:00 30 4 Norte 9 Nordeste 0 -- -- 43
2019-05-31 11:00:00 26.8 3 Norte 7 Norte 0 -- -- 52
2019-05-31 10:00:00 24.7 2 Nordeste 4 Nordeste 0 -- -- 55
2019-05-31 09:00:00 21.6 0 Calma 6 Noroeste 0 -- -- 64
2019-05-31 08:00:00 18.4 0 Calma 5 Sudeste 0 -- -- 71
2019-05-31 07:00:00 18.8 4 Este 14 Sudeste 0 -- -- 65
2019-05-31 06:00:00 19 6 Sudeste 10 Sudeste 0 -- -- 65
2019-05-31 05:00:00 19.5 4 Sur 11 Este 0 -- -- 63
2019-05-31 04:00:00 20.2 5 Este 10 Este 0 -- -- 60
2019-05-31 03:00:00 21.9 0 Calma 5 Noroeste 0 -- -- 56
2019-05-31 02:00:00 22.7 3 Oeste 5 Oeste 0 -- -- 52
2019-05-31 01:00:00 23.5 2 Noroeste 6 Sudeste 0 -- -- 52
2019-05-31 00:00:00 25 4 Este 11 Nordeste 0 -- -- 45
2019-05-30 23:00:00 27.2 6 Norte 17 Nordeste 0 -- -- 39
2019-05-30 22:00:00 28.5 3 Sudeste 17 Nordeste 0 -- -- 44
2019-05-30 21:00:00 29.1 5 Oeste 15 Noroeste 0 -- -- 46
2019-05-30 20:00:00 31.2 6 Oeste 12 Sudoeste 0 -- -- 38
2019-05-30 19:00:00 30.5 8 Oeste 19 Sudoeste 0 -- -- 38
2019-05-30 18:00:00 30.5 12 Sudoeste 18 Sudoeste 0 -- -- 36
2019-05-30 17:00:00 30 9 Oeste 18 Oeste 0 -- -- 39
2019-05-30 16:00:00 29.6 10 Oeste 22 Sudoeste 0 -- -- 38
2019-05-30 15:00:00 29 13 Oeste 20 Noroeste 0 -- -- 38
2019-05-30 14:00:00 29.7 14 Noroeste 20 Oeste 0 -- -- 38
2019-05-30 13:00:00 28.1 8 Noroeste 13 Noroeste 0 -- -- 43
2019-05-30 12:00:00 27.1 3 Norte 8 Norte 0 -- -- 52
2019-05-30 11:00:00 25.7 3 Nordeste 7 Nordeste 0 -- -- 55
2019-05-30 10:00:00 21.8 3 Este 6 Sudeste 0 -- -- 63
2019-05-30 09:00:00 18.6 4 Este 11 Sudeste 0 -- -- 73
2019-05-30 08:00:00 16.1 4 Este 13 Sudeste 0 -- -- 80
2019-05-30 07:00:00 15.3 3 Este 6 Sudeste 0 -- -- 82
2019-05-30 06:00:00 16.9 4 Sudeste 10 Sudeste 0 -- -- 75
2019-05-30 05:00:00 16.2 3 Este 9 Sudeste 0 -- -- 81
2019-05-30 04:00:00 17.9 2 Este 6 Sudeste 0 -- -- 73
2019-05-30 03:00:00 18.4 3 Sudeste 6 Sur 0 -- -- 73
2019-05-30 02:00:00 19.5 0 Calma 20 Norte 0 -- -- 70
2019-05-30 01:00:00 20.4 10 Norte 22 Norte 0 -- -- 67
2019-05-30 00:00:00 21.4 9 Nordeste 21 Norte 0 -- -- 64
2019-05-29 23:00:00 22.8 11 Norte 28 Nordeste 0 -- -- 59
2019-05-29 22:00:00 24.3 12 Norte 30 Norte 0 -- -- 57
2019-05-29 21:00:00 27.7 15 Norte 26 Norte 0 -- -- 49
2019-05-29 20:00:00 29.3 12 Nordeste 26 Nordeste 0 -- -- 43
2019-05-29 19:00:00 30.5 11 Nordeste 28 Norte 0 -- -- 40
2019-05-29 18:00:00 30.6 8 Nordeste 27 Nordeste 0 -- -- 37
2019-05-29 17:00:00 30.6 7 Nordeste 29 Nordeste 0 -- -- 35
2019-05-29 16:00:00 29.9 8 Nordeste 27 Nordeste 0 -- -- 35
2019-05-29 15:00:00 29.3 13 Nordeste 28 Norte 0 -- -- 36
2019-05-29 14:00:00 27.9 10 Nordeste 30 Nordeste 0 -- -- 39
2019-05-29 13:00:00 26.3 13 Nordeste 24 Nordeste 0 -- -- 41
2019-05-29 12:00:00 22.9 8 Norte 24 Norte 0 -- -- 51
2019-05-29 11:00:00 19.5 11 Norte 22 Nordeste 0 -- -- 59
2019-05-29 10:00:00 16.3 10 Nordeste 28 Nordeste 0 -- -- 67
2019-05-29 09:00:00 13.6 6 Nordeste 14 Nordeste 0 -- -- 73
2019-05-29 08:00:00 11.9 3 Este 21 Norte 0 -- -- 79
2019-05-29 07:00:00 11.9 7 Nordeste 25 Nordeste 0 -- -- 79
2019-05-29 06:00:00 12.4 10 Nordeste 31 Nordeste 0 -- -- 77
2019-05-29 05:00:00 12.6 14 Nordeste 29 Nordeste 0 -- -- 77
2019-05-29 04:00:00 13 14 Nordeste 25 Nordeste 0 -- -- 75
2019-05-29 03:00:00 13.5 11 Nordeste 24 Norte 0 -- -- 75
2019-05-29 02:00:00 14.2 14 Nordeste 26 Nordeste 0 -- -- 74
2019-05-29 01:00:00 14.3 6 Nordeste 20 Este 0 -- -- 77
2019-05-29 00:00:00 15.2 10 Nordeste 28 Norte 0 -- -- 75
2019-05-28 23:00:00 16.3 12 Nordeste 33 Nordeste 0 -- -- 69
2019-05-28 22:00:00 17.9 14 Nordeste 29 Nordeste 0 -- -- 63
2019-05-28 21:00:00 20.2 15 Nordeste 35 Norte 0 -- -- 55
2019-05-28 20:00:00 21.8 17 Nordeste 34 Nordeste 0 -- -- 50
2019-05-28 19:00:00 23.8 13 Nordeste 32 Norte 0 -- -- 45
2019-05-28 18:00:00 24.8 13 Nordeste 30 Nordeste 0 -- -- 45
2019-05-28 17:00:00 24.9 15 Nordeste 37 Norte 0 -- -- 43
2019-05-28 16:00:00 24.9 12 Norte 28 Nordeste 0 -- -- 41
2019-05-28 15:00:00 24.2 13 Nordeste 28 Norte 0 -- -- 42
2019-05-28 14:00:00 22.8 15 Nordeste 32 Nordeste 0 -- -- 45
2019-05-28 13:00:00 21.1 11 Nordeste 32 Nordeste 0 -- -- 49
2019-05-28 12:00:00 19.4 11 Nordeste 31 Nordeste 0 -- -- 56
2019-05-28 11:00:00 17.9 6 Nordeste 20 Este 0 -- -- 61
2019-05-28 10:00:00 15.8 6 Nordeste 21 Nordeste 0 -- -- 67
2019-05-28 09:00:00 14.2 4 Nordeste 23 Este 0 -- -- 75
2019-05-28 08:00:00 12.7 4 Nordeste 19 Nordeste 0 -- -- 80
2019-05-28 07:00:00 12 4 Nordeste 16 Nordeste 0 -- -- 81
2019-05-28 06:00:00 12.2 5 Nordeste 13 Nordeste 0 -- -- 81
2019-05-28 05:00:00 12.3 4 Nordeste 13 Nordeste 0 -- -- 79
2019-05-28 04:00:00 12.5 6 Nordeste 21 Nordeste 0 -- -- 78
2019-05-28 03:00:00 12.9 3 Nordeste 13 Nordeste 0 -- -- 77
2019-05-28 02:00:00 13.7 5 Nordeste 16 Nordeste 0 -- -- 73
2019-05-28 01:00:00 13.7 4 Este 23 Nordeste 0 -- -- 76
2019-05-28 00:00:00 14.2 7 Nordeste 23 Nordeste 0 -- -- 74
2019-05-27 23:00:00 14.5 12 Nordeste 29 Norte 0 -- -- 73
2019-05-27 22:00:00 15.6 13 Nordeste 32 Nordeste 0 -- -- 70
2019-05-27 21:00:00 17.7 14 Nordeste 37 Norte 0 -- -- 64
2019-05-27 20:00:00 20.7 10 Nordeste 28 Norte 0 -- -- 56
2019-05-27 19:00:00 22.5 12 Nordeste 29 Norte 0 -- -- 55
2019-05-27 18:00:00 23.3 9 Nordeste 28 Nordeste 0 -- -- 53
2019-05-27 17:00:00 23.9 13 Norte 30 Nordeste 0 -- -- 53
2019-05-27 16:00:00 24 10 Norte 28 Norte 0 -- -- 49
2019-05-27 15:00:00 23.9 9 Norte 23 Nordeste 0 -- -- 50
2019-05-27 14:00:00 23 8 Nordeste 24 Norte 0 -- -- 54
2019-05-27 13:00:00 22.6 6 Nordeste 23 Nordeste 0 -- -- 58
2019-05-27 12:00:00 21.5 6 Nordeste 18 Nordeste 0 -- -- 62
2019-05-27 11:00:00 19.5 6 Nordeste 15 Nordeste 0 -- -- 75
2019-05-27 10:00:00 17.4 4 Nordeste 9 Nordeste 0 -- -- 80
2019-05-27 09:00:00 16 2 Nordeste 8 Norte 0 -- -- 84
2019-05-27 08:00:00 15.3 3 Sudeste 7 Sudeste 0 -- -- 85
2019-05-27 07:00:00 15.2 0 Calma 6 Nordeste 0 -- -- 85
2019-05-27 06:00:00 14.9 3 Nordeste 9 Nordeste 0 -- -- 86
2019-05-27 05:00:00 14.7 3 Nordeste 12 Nordeste 0 -- -- 86
2019-05-27 04:00:00 14.8 4 Nordeste 17 Norte 0 -- -- 85
2019-05-27 03:00:00 14.8 6 Norte 17 Nordeste 0 -- -- 84
2019-05-27 02:00:00 14.8 6 Nordeste 25 Nordeste 0 -- -- 83
2019-05-27 01:00:00 15.1 8 Norte 18 Noroeste 0 -- -- 81
2019-05-27 00:00:00 15.6 5 Nordeste 16 Nordeste 0 -- -- 78
2019-05-26 23:00:00 16.6 3 Nordeste 16 Este 0 -- -- 73
2019-05-26 22:00:00 18.9 5 Nordeste 18 Nordeste 0 -- -- 66
2019-05-26 21:00:00 22.9 4 Nordeste 16 Nordeste 0 -- -- 56
2019-05-26 20:00:00 25.5 5 Nordeste 17 Nordeste 0 -- -- 49
2019-05-26 19:00:00 27.8 6 Norte 16 Norte 0 -- -- 46
2019-05-26 18:00:00 28.4 6 Nordeste 15 Este 0 -- -- 44
2019-05-26 17:00:00 27.9 5 Nordeste 16 Nordeste 0 -- -- 47
2019-05-26 16:00:00 25.9 6 Nordeste 18 Nordeste 0 -- -- 51
2019-05-26 15:00:00 25.7 9 Nordeste 21 Este 0 -- -- 50
2019-05-26 14:00:00 24.4 6 Norte 17 Norte 0 -- -- 53
2019-05-26 13:00:00 23 6 Nordeste 14 Nordeste 0 -- -- 55
2019-05-26 12:00:00 20.8 5 Nordeste 18 Nordeste 0 -- -- 61
2019-05-26 11:00:00 18.3 6 Nordeste 22 Norte 0 -- -- 67
2019-05-26 10:00:00 15.8 8 Nordeste 20 Nordeste 0 -- -- 74
2019-05-26 09:00:00 14.4 7 Nordeste 19 Norte 0 -- -- 80
2019-05-26 08:00:00 13.4 7 Nordeste 27 Norte 0 -- -- 84
2019-05-26 07:00:00 13.1 6 Nordeste 24 Nordeste 0 -- -- 84
2019-05-26 06:00:00 13 4 Este 19 Norte 0 -- -- 84
2019-05-26 05:00:00 12.9 4 Nordeste 13 Nordeste 0 -- -- 85
2019-05-26 04:00:00 13.2 5 Nordeste 13 Norte 0 -- -- 84
2019-05-26 03:00:00 13.7 4 Nordeste 12 Nordeste 0 -- -- 82
2019-05-26 02:00:00 14.2 7 Nordeste 18 Nordeste 0 -- -- 80
2019-05-26 01:00:00 14.6 7 Nordeste 20 Norte 0 -- -- 79
2019-05-26 00:00:00 15.4 9 Norte 24 Norte 0 -- -- 74